Time;durP1;ratioP1;P1;durP2;ratioP2;P2;SDS_P1;SDS_P2;PMS_P1;PMS_P2;Temp;Humidity;BMP_temperature;BMP_pressure;BME280_temperature;BME280_humidity;BME280_pressure;Samples;Min_cycle;Max_cycle;Signal;HPM_P1;HPM_P2
2022/04/05 00:01:42;;;;;;;;;20.75;19.50;;;;;;;;5119777;27;45416;-76
2022/04/05 00:04:07;;;;;;;;;22.25;22.25;;;;;;;;5123395;27;45682;-76
2022/04/05 00:06:32;;;;;;;;;19.25;16.25;;;;;;;;5123149;27;45328;-76
2022/04/05 00:08:57;;;;;;;;;19.75;19.25;;;;;;;;5122975;27;45446;-76
2022/04/05 00:11:22;;;;;;;;;23.25;21.25;;;;;;;;5123235;27;46384;-76
2022/04/05 00:13:48;;;;;;;;;18.25;18.25;;;;;;;;5123117;27;45331;-76
2022/04/05 00:16:13;;;;;;;;;29.75;26.25;;;;;;;;5108678;27;45415;-75
2022/04/05 00:18:41;;;;;;;;;20.75;18.75;;;;;;;;5102324;27;45331;-76
2022/04/05 00:21:07;;;;;;;;;21.50;18.00;;;;;;;;5100773;27;47257;-76
2022/04/05 00:23:32;;;;;;;;;20.00;17.75;;;;;;;;5102357;27;45337;-76
2022/04/05 00:25:57;;;;;;;;;17.00;16.25;;;;;;;;5102464;27;45372;-76
2022/04/05 00:28:22;;;;;;;;;17.75;17.50;;;;;;;;5102317;27;45613;-76
2022/04/05 00:30:48;;;;;;;;;20.75;19.75;;;;;;;;5101662;27;45282;-76
2022/04/05 00:33:13;;;;;;;;;19.50;18.50;;;;;;;;5102122;27;45351;-76
2022/04/05 00:35:38;;;;;;;;;17.75;17.75;;;;;;;;5100526;27;45372;-76
2022/04/05 00:38:03;;;;;;;;;19.25;19.25;;;;;;;;5101968;27;45222;-76
2022/04/05 00:40:30;;;;;;;;;20.50;19.25;;;;;;;;5102094;27;45388;-76
2022/04/05 00:42:55;;;;;;;;;16.00;15.00;;;;;;;;5100811;27;45245;-76
2022/04/05 00:45:21;;;;;;;;;19.50;19.25;;;;;;;;5102064;27;45369;-75
2022/04/05 00:47:48;;;;;;;;;18.75;18.75;;;;;;;;5101871;27;45487;-76
2022/04/05 00:50:17;;;;;;;;;18.50;18.50;;;;;;;;5100213;27;47850;-76
2022/04/05 00:52:42;;;;;;;;;17.00;16.00;;;;;;;;5099987;27;45378;-76
2022/04/05 00:55:09;;;;;;;;;23.00;23.00;;;;;;;;5101935;27;45199;-76
2022/04/05 00:57:35;;;;;;;;;16.75;16.75;;;;;;;;5101834;27;45295;-76
2022/04/05 01:00:01;;;;;;;;;19.25;18.00;;;;;;;;5101663;27;46271;-76
2022/04/05 01:02:27;;;;;;;;;20.25;18.75;;;;;;;;5101627;27;45330;-76
2022/04/05 01:04:53;;;;;;;;;21.00;19.75;;;;;;;;5100479;27;45364;-76
2022/04/05 01:07:21;;;;;;;;;17.25;16.00;;;;;;;;5101163;27;45344;-76
2022/04/05 01:09:46;;;;;;;;;20.25;18.25;;;;;;;;5101132;27;46996;-76
2022/04/05 01:12:12;;;;;;;;;19.25;18.00;;;;;;;;5101439;27;45712;-76
2022/04/05 01:14:38;;;;;;;;;18.25;17.50;;;;;;;;5100865;27;45330;-76
2022/04/05 01:17:04;;;;;;;;;17.25;17.25;;;;;;;;5121973;27;45261;-76
2022/04/05 01:19:33;;;;;;;;;17.25;17.25;;;;;;;;5121584;27;45507;-76
2022/04/05 01:21:59;;;;;;;;;19.75;19.00;;;;;;;;5120545;27;45282;-76
2022/04/05 01:24:24;;;;;;;;;25.50;21.25;;;;;;;;5122221;27;45348;-76
2022/04/05 01:26:54;;;;;;;;;19.50;19.50;;;;;;;;5119337;27;46423;-76
2022/04/05 01:29:20;;;;;;;;;14.75;14.50;;;;;;;;5119650;27;47255;-76
2022/04/05 01:31:47;;;;;;;;;20.25;19.50;;;;;;;;5121366;27;45307;-76
2022/04/05 01:34:13;;;;;;;;;15.25;15.25;;;;;;;;5120386;27;45609;-76
2022/04/05 01:36:43;;;;;;;;;18.75;18.50;;;;;;;;5119587;27;47037;-76
2022/04/05 01:39:09;;;;;;;;;19.00;17.75;;;;;;;;5121141;27;47411;-76
2022/04/05 01:41:34;;;;;;;;;19.50;19.00;;;;;;;;5120868;27;45340;-76
2022/04/05 01:43:59;;;;;;;;;16.00;16.00;;;;;;;;5121884;27;45336;-76
2022/04/05 01:46:24;;;;;;;;;17.75;15.75;;;;;;;;5119206;27;47171;-76
2022/04/05 01:48:51;;;;;;;;;18.25;18.00;;;;;;;;5121277;27;45344;-76
2022/04/05 01:51:16;;;;;;;;;17.75;17.75;;;;;;;;5119781;27;45289;-76
2022/04/05 01:53:41;;;;;;;;;18.00;16.75;;;;;;;;5121244;27;45274;-76
2022/04/05 01:56:06;;;;;;;;;19.00;19.00;;;;;;;;5121376;27;45489;-76
2022/04/05 01:58:34;;;;;;;;;22.50;19.75;;;;;;;;5119905;27;47654;-76
2022/04/05 02:01:02;;;;;;;;;17.25;16.75;;;;;;;;5121378;27;45354;-76
2022/04/05 02:03:27;;;;;;;;;19.00;19.00;;;;;;;;5119287;27;45339;-76
2022/04/05 02:05:52;;;;;;;;;15.75;15.75;;;;;;;;5120632;27;45407;-76
2022/04/05 02:08:17;;;;;;;;;16.00;16.00;;;;;;;;5119592;27;47006;-76
2022/04/05 02:10:42;;;;;;;;;19.25;17.00;;;;;;;;5119335;27;45676;-76
2022/04/05 02:13:08;;;;;;;;;21.25;20.25;;;;;;;;5119297;27;45392;-76
2022/04/05 02:15:33;;;;;;;;;20.75;19.50;;;;;;;;5110700;27;46307;-76
2022/04/05 02:17:59;;;;;;;;;16.25;15.75;;;;;;;;5100693;27;45301;-76
2022/04/05 02:20:24;;;;;;;;;19.00;19.00;;;;;;;;5099847;27;45265;-76
2022/04/05 02:22:49;;;;;;;;;14.00;14.00;;;;;;;;5100212;27;45263;-76
2022/04/05 02:25:14;;;;;;;;;16.25;16.25;;;;;;;;5099283;27;45491;-76
2022/04/05 02:27:41;;;;;;;;;21.50;18.75;;;;;;;;5099968;27;46213;-76
2022/04/05 02:30:06;;;;;;;;;14.00;14.00;;;;;;;;5100054;27;45363;-76
2022/04/05 02:32:31;;;;;;;;;15.75;15.75;;;;;;;;5099852;27;45289;-76
2022/04/05 02:34:57;;;;;;;;;16.00;14.75;;;;;;;;5098127;27;46475;-76
2022/04/05 02:37:22;;;;;;;;;17.50;17.50;;;;;;;;5099969;27;46228;-76
2022/04/05 02:39:47;;;;;;;;;14.00;13.00;;;;;;;;5100250;27;45307;-76
2022/04/05 02:42:12;;;;;;;;;19.00;17.50;;;;;;;;5099814;27;45394;-76
2022/04/05 02:44:38;;;;;;;;;21.25;18.00;;;;;;;;5100037;27;45290;-76
2022/04/05 02:47:04;;;;;;;;;17.50;17.50;;;;;;;;5099295;27;45539;-76
2022/04/05 02:49:29;;;;;;;;;18.00;18.00;;;;;;;;5100052;27;45255;-77
2022/04/05 02:51:55;;;;;;;;;18.00;18.00;;;;;;;;5098228;27;45337;-76
2022/04/05 02:54:20;;;;;;;;;18.75;17.00;;;;;;;;5099882;27;45586;-76
2022/04/05 02:56:45;;;;;;;;;15.25;14.75;;;;;;;;5097991;27;48263;-76
2022/04/05 02:59:10;;;;;;;;;19.75;19.75;;;;;;;;5099854;27;45439;-76
2022/04/05 03:01:35;;;;;;;;;17.75;16.00;;;;;;;;5100102;27;45421;-75
2022/04/05 03:04:01;;;;;;;;;19.00;18.75;;;;;;;;5099676;27;45589;-76
2022/04/05 03:06:26;;;;;;;;;19.00;19.00;;;;;;;;5098055;27;47102;-76
2022/04/05 03:08:56;;;;;;;;;21.00;20.75;;;;;;;;5099851;27;45389;-75
2022/04/05 03:11:21;;;;;;;;;21.75;19.75;;;;;;;;5099351;27;45396;-76
2022/04/05 03:13:46;;;;;;;;;22.25;22.25;;;;;;;;5099585;27;45506;-76
2022/04/05 03:16:12;;;;;;;;;25.75;24.00;;;;;;;;5113392;27;45300;-76
2022/04/05 03:18:38;;;;;;;;;19.00;19.00;;;;;;;;5119011;27;45381;-76
2022/04/05 03:21:04;;;;;;;;;19.25;18.25;;;;;;;;5119397;27;45326;-76
2022/04/05 03:23:29;;;;;;;;;16.75;16.50;;;;;;;;5119885;27;45441;-76
2022/04/05 03:25:54;;;;;;;;;21.25;16.50;;;;;;;;5118087;27;48294;-76
2022/04/05 03:28:20;;;;;;;;;17.50;17.50;;;;;;;;5118798;27;45653;-76
2022/04/05 03:30:47;;;;;;;;;21.50;19.50;;;;;;;;5119742;27;45402;-76
2022/04/05 03:33:12;;;;;;;;;20.00;18.00;;;;;;;;5119259;27;45271;-76
2022/04/05 03:35:37;;;;;;;;;18.75;17.50;;;;;;;;5119200;27;45758;-76
2022/04/05 03:38:03;;;;;;;;;17.75;16.50;;;;;;;;5123500;27;45317;-76
2022/04/05 03:40:28;;;;;;;;;19.50;19.50;;;;;;;;5123565;27;45328;-76
2022/04/05 03:42:53;;;;;;;;;18.25;15.50;;;;;;;;5121997;27;46148;-76
2022/04/05 03:45:19;;;;;;;;;17.00;16.50;;;;;;;;5123304;27;46393;-76
2022/04/05 03:47:44;;;;;;;;;20.25;19.00;;;;;;;;5122978;27;45246;-76
2022/04/05 03:50:09;;;;;;;;;21.00;21.00;;;;;;;;5121921;27;45320;-76
2022/04/05 03:52:34;;;;;;;;;23.75;22.75;;;;;;;;5121936;27;45294;-76
2022/04/05 03:55:00;;;;;;;;;20.00;19.75;;;;;;;;5122679;27;46160;-76
2022/04/05 03:57:25;;;;;;;;;20.25;18.75;;;;;;;;5123530;27;45214;-76
2022/04/05 03:59:50;;;;;;;;;21.25;18.00;;;;;;;;5123474;27;45307;-76
2022/04/05 04:02:15;;;;;;;;;23.00;23.00;;;;;;;;5123310;27;45373;-76
2022/04/05 04:04:41;;;;;;;;;23.00;21.75;;;;;;;;5121795;27;48060;-76
2022/04/05 04:07:06;;;;;;;;;22.25;21.50;;;;;;;;5122907;27;45321;-76
2022/04/05 04:09:31;;;;;;;;;19.00;18.25;;;;;;;;5123309;27;45549;-76
2022/04/05 04:11:57;;;;;;;;;22.00;22.00;;;;;;;;5122613;27;45206;-76
2022/04/05 04:14:22;;;;;;;;;23.25;21.75;;;;;;;;5123117;27;46275;-76
2022/04/05 04:16:47;;;;;;;;;22.75;21.00;;;;;;;;5102040;27;45296;-76
2022/04/05 04:19:12;;;;;;;;;21.75;21.50;;;;;;;;5102166;27;45410;-76
2022/04/05 04:21:38;;;;;;;;;18.75;18.00;;;;;;;;5102021;27;45424;-76
2022/04/05 04:24:03;;;;;;;;;25.75;21.75;;;;;;;;5100651;27;47090;-76
2022/04/05 04:26:29;;;;;;;;;24.00;21.25;;;;;;;;5099934;27;45768;-76
2022/04/05 04:28:57;;;;;;;;;20.00;18.75;;;;;;;;5102442;27;45260;-76
2022/04/05 04:31:23;;;;;;;;;25.25;25.25;;;;;;;;5101412;27;45553;-76
2022/04/05 04:33:48;;;;;;;;;21.00;21.00;;;;;;;;5100303;27;46912;-76
2022/04/05 04:36:13;;;;;;;;;24.50;24.50;;;;;;;;5101155;27;45302;-76
2022/04/05 04:38:38;;;;;;;;;27.25;25.00;;;;;;;;5100202;27;45314;-76
2022/04/05 04:41:04;;;;;;;;;27.75;26.50;;;;;;;;5101510;27;45454;-77
2022/04/05 04:43:29;;;;;;;;;25.25;23.50;;;;;;;;5101850;27;45250;-76
2022/04/05 04:45:54;;;;;;;;;22.00;21.00;;;;;;;;5101940;27;45207;-77
2022/04/05 04:48:20;;;;;;;;;23.25;22.75;;;;;;;;5093402;27;45329;-77
2022/04/05 04:50:46;;;;;;;;;26.50;25.00;;;;;;;;5092788;27;47265;-76
2022/04/05 04:53:11;;;;;;;;;23.25;23.25;;;;;;;;5089780;27;47171;-77
2022/04/05 04:55:37;;;;;;;;;23.75;22.00;;;;;;;;5080689;27;45420;-76
2022/04/05 04:58:02;;;;;;;;;25.00;24.50;;;;;;;;5080480;27;45550;-76
2022/04/05 05:00:27;;;;;;;;;25.75;25.00;;;;;;;;5080911;27;45579;-76
2022/04/05 05:02:52;;;;;;;;;24.75;23.75;;;;;;;;5080775;27;45343;-77
2022/04/05 05:05:21;;;;;;;;;31.25;27.25;;;;;;;;5081676;27;45422;-77
2022/04/05 05:07:48;;;;;;;;;27.25;26.00;;;;;;;;5079407;28;45354;-77
2022/04/05 05:10:17;;;;;;;;;27.25;26.25;;;;;;;;5084031;27;45315;-79
2022/04/05 05:12:43;;;;;;;;;32.50;28.50;;;;;;;;5093458;27;46527;-80
2022/04/05 05:15:09;;;;;;;;;31.00;30.00;;;;;;;;5103370;27;45306;-80
2022/04/05 05:17:37;;;;;;;;;30.50;29.25;;;;;;;;5133629;27;45527;-79
2022/04/05 05:20:06;;;;;;;;;26.50;26.00;;;;;;;;5131725;27;46904;-80
2022/04/05 05:22:31;;;;;;;;;33.50;29.25;;;;;;;;5134443;27;45251;-80
2022/04/05 05:24:56;;;;;;;;;29.75;29.75;;;;;;;;5131520;27;45194;-79
2022/04/05 05:27:22;;;;;;;;;31.00;29.75;;;;;;;;5126984;27;45230;-80
2022/04/05 05:29:47;;;;;;;;;32.75;30.25;;;;;;;;5121789;27;45313;-78
2022/04/05 05:32:12;;;;;;;;;36.25;32.25;;;;;;;;5121471;27;46104;-79
2022/04/05 05:34:37;;;;;;;;;37.00;32.75;;;;;;;;5120604;27;45376;-80
2022/04/05 05:37:04;;;;;;;;;36.75;34.25;;;;;;;;5119435;27;45548;-79
2022/04/05 05:39:29;;;;;;;;;35.75;32.50;;;;;;;;5121491;27;45300;-79
2022/04/05 05:41:55;;;;;;;;;35.25;32.50;;;;;;;;5121300;27;46077;-79
2022/04/05 05:44:20;;;;;;;;;38.25;32.75;;;;;;;;5121679;27;45336;-78
2022/04/05 05:46:45;;;;;;;;;37.25;33.50;;;;;;;;5120115;27;45835;-78
2022/04/05 05:49:11;;;;;;;;;35.50;32.50;;;;;;;;5102151;27;45382;-77
2022/04/05 05:51:36;;;;;;;;;33.00;31.25;;;;;;;;5080135;27;45969;-78
2022/04/05 05:54:01;;;;;;;;;31.75;26.75;;;;;;;;5080414;27;45235;-78
2022/04/05 05:56:27;;;;;;;;;37.25;33.75;;;;;;;;5079462;28;45252;-78
2022/04/05 05:58:52;;;;;;;;;31.50;29.25;;;;;;;;5078847;27;46071;-79
2022/04/05 06:01:17;;;;;;;;;30.50;28.75;;;;;;;;5078210;27;47236;-77
2022/04/05 06:03:43;;;;;;;;;36.25;32.75;;;;;;;;5080365;28;45695;-76
2022/04/05 06:06:08;;;;;;;;;32.25;30.50;;;;;;;;5080209;27;45424;-77
2022/04/05 06:08:33;;;;;;;;;33.50;32.00;;;;;;;;5079945;27;45442;-76
2022/04/05 06:10:58;;;;;;;;;32.00;29.25;;;;;;;;5079834;27;46129;-76
2022/04/05 06:13:24;;;;;;;;;29.25;29.25;;;;;;;;5080252;27;45328;-76
2022/04/05 06:15:50;;;;;;;;;31.00;30.00;;;;;;;;5085961;27;45438;-76
2022/04/05 06:18:15;;;;;;;;;29.00;27.50;;;;;;;;5084102;27;46054;-76
2022/04/05 06:20:40;;;;;;;;;35.00;31.25;;;;;;;;5081668;27;46912;-76
2022/04/05 06:23:05;;;;;;;;;33.75;32.50;;;;;;;;5084764;27;45305;-76
2022/04/05 06:25:36;;;;;;;;;31.50;30.25;;;;;;;;5089100;27;45383;-77
2022/04/05 06:28:03;;;;;;;;;32.75;30.75;;;;;;;;5079253;27;45544;-77
2022/04/05 06:30:29;;;;;;;;;38.50;33.75;;;;;;;;5079349;27;46197;-76
2022/04/05 06:33:10;;;;;;;;;32.25;29.75;;;;;;;;5078325;28;45985;-76
2022/04/05 06:35:43;;;;;;;;;29.25;28.00;;;;;;;;5079969;27;45344;-76
2022/04/05 06:38:08;;;;;;;;;32.50;30.25;;;;;;;;5079826;27;45697;-76
2022/04/05 06:40:33;;;;;;;;;35.25;31.00;;;;;;;;5079667;27;45562;-76
2022/04/05 06:42:59;;;;;;;;;37.00;32.75;;;;;;;;5078586;27;45385;-77
2022/04/05 06:45:24;;;;;;;;;35.75;31.50;;;;;;;;5078940;27;45383;-77
2022/04/05 06:47:50;;;;;;;;;36.50;32.50;;;;;;;;5079114;27;45385;-78
2022/04/05 06:50:24;;;;;;;;;32.00;30.00;;;;;;;;5075945;28;47104;-78
2022/04/05 06:52:50;;;;;;;;;30.75;29.75;;;;;;;;5079142;28;45397;-77
2022/04/05 06:55:15;;;;;;;;;34.25;31.75;;;;;;;;5079560;28;45373;-78
2022/04/05 06:57:40;;;;;;;;;30.25;28.00;;;;;;;;5079497;28;45489;-77
2022/04/05 07:00:07;;;;;;;;;36.50;32.75;;;;;;;;5078832;27;45465;-77
2022/04/05 07:02:32;;;;;;;;;31.75;30.50;;;;;;;;5079566;27;45314;-77
2022/04/05 07:04:58;;;;;;;;;32.25;31.25;;;;;;;;5079519;28;45452;-77
2022/04/05 07:07:23;;;;;;;;;32.50;31.00;;;;;;;;5078327;27;45429;-76
2022/04/05 07:09:48;;;;;;;;;29.75;27.50;;;;;;;;5079317;27;46471;-76
2022/04/05 07:12:13;;;;;;;;;33.00;31.75;;;;;;;;5081897;27;45262;-78
2022/04/05 07:14:39;;;;;;;;;30.25;29.00;;;;;;;;5085750;27;45510;-76
2022/04/05 07:17:04;;;;;;;;;29.75;28.75;;;;;;;;5082367;27;45231;-76
2022/04/05 07:19:30;;;;;;;;;33.25;30.75;;;;;;;;5082139;27;46059;-76
2022/04/05 07:21:55;;;;;;;;;35.50;31.50;;;;;;;;5081833;27;45382;-77
2022/04/05 07:24:21;;;;;;;;;27.75;26.75;;;;;;;;5082311;27;45437;-77
2022/04/05 07:26:46;;;;;;;;;30.25;30.25;;;;;;;;5082282;27;45227;-76
2022/04/05 07:29:11;;;;;;;;;31.75;31.00;;;;;;;;5081992;27;46211;-76
2022/04/05 07:31:37;;;;;;;;;27.25;26.75;;;;;;;;5080317;27;45294;-76
2022/04/05 07:34:03;;;;;;;;;26.75;25.25;;;;;;;;5082528;27;45491;-76
2022/04/05 07:36:29;;;;;;;;;27.25;26.00;;;;;;;;5080869;27;46189;-77
2022/04/05 07:38:54;;;;;;;;;29.75;28.75;;;;;;;;5081823;27;46103;-76
2022/04/05 07:41:19;;;;;;;;;30.25;30.25;;;;;;;;5081990;27;45391;-76
2022/04/05 07:43:45;;;;;;;;;35.25;31.00;;;;;;;;5081418;28;45330;-76
2022/04/05 07:46:10;;;;;;;;;32.25;30.25;;;;;;;;5081070;28;46012;-77
2022/04/05 07:48:36;;;;;;;;;34.25;32.25;;;;;;;;5081860;27;45522;-76
2022/04/05 07:51:01;;;;;;;;;33.00;30.25;;;;;;;;5082279;27;45380;-76
2022/04/05 07:53:26;;;;;;;;;34.50;31.75;;;;;;;;5081937;27;45422;-76
2022/04/05 07:55:54;;;;;;;;;34.75;32.75;;;;;;;;5080827;28;46246;-76
2022/04/05 07:58:19;;;;;;;;;33.25;31.50;;;;;;;;5081388;27;46917;-75
2022/04/05 08:00:44;;;;;;;;;30.50;29.75;;;;;;;;5082132;27;45240;-75
2022/04/05 08:03:10;;;;;;;;;35.50;31.00;;;;;;;;5082349;28;45290;-76
2022/04/05 08:05:35;;;;;;;;;29.75;28.75;;;;;;;;5079714;28;47520;-76
2022/04/05 08:08:00;;;;;;;;;27.50;26.25;;;;;;;;5080325;28;48435;-76
2022/04/05 08:10:25;;;;;;;;;31.25;29.75;;;;;;;;5082072;27;45300;-76
2022/04/05 08:12:51;;;;;;;;;28.25;28.00;;;;;;;;5081809;27;45188;-76
2022/04/05 08:15:17;;;;;;;;;34.25;31.00;;;;;;;;5093481;27;45488;-76
2022/04/05 08:17:43;;;;;;;;;27.75;27.75;;;;;;;;5122873;27;45398;-76
2022/04/05 08:20:08;;;;;;;;;32.25;29.50;;;;;;;;5093540;27;45697;-75
2022/04/05 08:22:34;;;;;;;;;37.50;32.00;;;;;;;;5080478;27;45404;-76
2022/04/05 08:24:59;;;;;;;;;31.50;27.50;;;;;;;;5081403;28;45301;-76
2022/04/05 08:27:24;;;;;;;;;30.75;28.75;;;;;;;;5081708;27;46066;-75
2022/04/05 08:29:49;;;;;;;;;30.75;30.50;;;;;;;;5081630;27;45353;-76
2022/04/05 08:32:15;;;;;;;;;28.00;26.75;;;;;;;;5081611;27;45502;-76
2022/04/05 08:34:42;;;;;;;;;30.50;27.75;;;;;;;;5081463;27;45397;-76
2022/04/05 08:37:08;;;;;;;;;27.75;26.75;;;;;;;;5081376;27;46012;-75
2022/04/05 08:39:33;;;;;;;;;36.50;31.50;;;;;;;;5081645;27;45212;-76
2022/04/05 08:41:59;;;;;;;;;29.00;27.00;;;;;;;;5079725;28;45266;-76
2022/04/05 08:44:24;;;;;;;;;33.00;30.25;;;;;;;;5081334;28;45614;-76
2022/04/05 08:46:51;;;;;;;;;33.00;30.50;;;;;;;;5081585;27;46589;-76
2022/04/05 08:49:17;;;;;;;;;30.25;29.75;;;;;;;;5081449;27;45280;-75
2022/04/05 08:51:42;;;;;;;;;33.00;31.25;;;;;;;;5079547;28;45455;-75
2022/04/05 08:54:07;;;;;;;;;37.50;33.00;;;;;;;;5079782;28;46095;-76
2022/04/05 08:56:33;;;;;;;;;38.25;34.00;;;;;;;;5081099;27;46130;-75
2022/04/05 08:58:59;;;;;;;;;34.75;31.75;;;;;;;;5081117;27;45443;-76
2022/04/05 09:01:29;;;;;;;;;32.50;30.00;;;;;;;;5080552;27;45355;-76
2022/04/05 09:03:55;;;;;;;;;37.25;33.00;;;;;;;;5081332;27;45298;-75
2022/04/05 09:06:27;;;;;;;;;34.75;32.00;;;;;;;;5080891;27;45301;-76
2022/04/05 09:09:13;;;;;;;;;40.00;35.00;;;;;;;;5079870;28;45243;-76
2022/04/05 09:11:45;;;;;;;;;34.50;32.25;;;;;;;;5080617;28;45235;-76
2022/04/05 09:14:11;;;;;;;;;36.75;33.00;;;;;;;;5081470;27;46185;-76
2022/04/05 09:16:36;;;;;;;;;43.50;35.00;;;;;;;;5115686;27;46173;-77
2022/04/05 09:19:12;;;;;;;;;36.75;33.00;;;;;;;;5122123;27;45455;-76
2022/04/05 09:21:50;;;;;;;;;36.50;33.00;;;;;;;;5120077;27;45364;-76
2022/04/05 09:24:15;;;;;;;;;33.75;30.25;;;;;;;;5120628;27;45403;-77
2022/04/05 09:26:43;;;;;;;;;36.75;33.25;;;;;;;;5105331;27;46200;-77
2022/04/05 09:29:08;;;;;;;;;37.25;32.50;;;;;;;;5079382;28;45710;-76
2022/04/05 09:31:41;;;;;;;;;23.25;22.50;;;;;;;;5079195;28;45458;-77
2022/04/05 09:34:16;;;;;;;;;35.00;30.00;;;;;;;;5080155;28;45296;-76
2022/04/05 09:36:46;;;;;;;;;31.75;30.00;;;;;;;;5080186;27;45345;-77
2022/04/05 09:39:19;;;;;;;;;35.75;31.75;;;;;;;;5079235;28;45978;-76
2022/04/05 09:42:05;;;;;;;;;32.00;29.50;;;;;;;;5079276;28;45385;-76
2022/04/05 09:44:33;;;;;;;;;35.75;33.00;;;;;;;;5080192;28;45216;-77
2022/04/05 09:47:05;;;;;;;;;34.25;32.25;;;;;;;;5079915;27;46690;-76
2022/04/05 09:49:32;;;;;;;;;40.25;33.75;;;;;;;;5080169;27;45324;-77
2022/04/05 09:51:57;;;;;;;;;40.00;35.00;;;;;;;;5080385;27;45354;-77
2022/04/05 09:54:27;;;;;;;;;34.50;31.50;;;;;;;;5080407;27;45559;-77
2022/04/05 09:56:58;;;;;;;;;37.75;31.50;;;;;;;;5080370;27;45404;-77
2022/04/05 09:59:23;;;;;;;;;33.75;31.25;;;;;;;;5078818;28;45560;-77
2022/04/05 10:01:51;;;;;;;;;32.25;30.75;;;;;;;;5079083;28;45328;-77
2022/04/05 10:04:17;;;;;;;;;31.25;30.25;;;;;;;;5078366;28;46458;-76
2022/04/05 10:06:46;;;;;;;;;34.50;31.75;;;;;;;;5077939;27;47127;-76
2022/04/05 10:09:12;;;;;;;;;26.50;26.00;;;;;;;;5078936;28;45539;-77
2022/04/05 10:11:39;;;;;;;;;16.25;16.25;;;;;;;;5081357;27;45613;-79
2022/04/05 10:14:04;;;;;;;;;29.00;28.00;;;;;;;;5085882;27;45381;-78
2022/04/05 10:16:31;;;;;;;;;27.50;27.00;;;;;;;;5125253;27;45202;-79
2022/04/05 10:18:57;;;;;;;;;27.00;26.50;;;;;;;;5110084;27;45384;-77
2022/04/05 10:21:24;;;;;;;;;29.25;27.50;;;;;;;;5109038;27;45487;-80
2022/04/05 10:23:50;;;;;;;;;29.67;28.00;;;;;;;;5107227;27;45520;-79
2022/04/05 10:26:18;;;;;;;;;27.33;25.33;;;;;;;;5095863;27;46020;-81
2022/04/05 10:28:45;;;;;;;;;29.33;26.33;;;;;;;;5112003;27;45281;-80
2022/04/05 10:31:14;;;;;;;;;29.33;26.33;;;;;;;;5112747;27;45181;-78
2022/04/05 10:33:49;;;;;;;;;28.33;25.33;;;;;;;;5109981;27;45479;-79
2022/04/05 10:36:20;;;;;;;;;26.67;26.33;;;;;;;;5111261;27;45387;-78
2022/04/05 10:39:05;;;;;;;;;28.75;26.00;;;;;;;;5097186;27;45388;-79
2022/04/05 10:41:30;;;;;;;;;26.67;25.33;;;;;;;;5106020;27;45297;-79
2022/04/05 10:44:14;;;;;;;;;25.33;25.33;;;;;;;;5114977;27;45186;-79
2022/04/05 10:46:41;;;;;;;;;37.75;34.00;;;;;;;;5102177;27;47244;-79
2022/04/05 10:49:07;;;;;;;;;31.50;30.75;;;;;;;;5111296;27;45491;-82
2022/04/05 10:51:52;;;;;;;;;30.33;26.67;;;;;;;;5088807;27;45919;-78
2022/04/05 10:54:17;;;;;;;;;31.67;30.67;;;;;;;;5085786;27;45420;-80
2022/04/05 10:57:03;;;;;;;;;33.50;29.50;;;;;;;;5088693;27;45538;-78
2022/04/05 10:59:45;;;;;;;;;34.50;30.75;;;;;;;;5101956;27;45594;-79
2022/04/05 11:02:26;;;;;;;;;31.25;30.00;;;;;;;;5105184;27;45519;-80
2022/04/05 11:04:58;;;;;;;;;33.50;31.75;;;;;;;;5104006;27;46374;-78
2022/04/05 11:07:23;;;;;;;;;34.33;29.67;;;;;;;;5108846;27;47165;-80
2022/04/05 11:09:52;;;;;;;;;33.00;30.50;;;;;;;;5109846;27;45455;-79
2022/04/05 11:12:17;;;;;;;;;33.75;30.25;;;;;;;;5098551;27;45329;-78
2022/04/05 11:14:49;;;;;;;;;32.33;29.67;;;;;;;;5101032;27;45214;-79
2022/04/05 11:17:15;;;;;;;;;28.00;27.67;;;;;;;;5090314;27;46286;-77
2022/04/05 11:19:42;;;;;;;;;29.33;29.00;;;;;;;;5095083;27;45284;-79
2022/04/05 11:22:20;;;;;;;;;28.75;28.75;;;;;;;;5103412;27;45314;-78
2022/04/05 11:24:52;;;;;;;;;32.50;30.50;;;;;;;;5097675;27;45650;-78
2022/04/05 11:27:28;;;;;;;;;27.33;27.00;;;;;;;;5094019;27;45352;-79
2022/04/05 11:30:12;;;;;;;;;32.00;29.33;;;;;;;;5103740;27;45252;-80
2022/04/05 11:32:37;;;;;;;;;33.75;31.25;;;;;;;;5108231;27;45443;-78
2022/04/05 11:35:02;;;;;;;;;32.00;28.33;;;;;;;;5103871;27;45551;-81
2022/04/05 11:37:36;;;;;;;;;25.00;25.00;;;;;;;;5100901;27;47153;-80
2022/04/05 11:40:02;;;;;;;;;31.00;30.00;;;;;;;;5096104;27;45387;-81
2022/04/05 11:42:34;;;;;;;;;29.75;29.00;;;;;;;;5093848;27;45325;-79
2022/04/05 11:45:01;;;;;;;;;28.67;28.00;;;;;;;;5084923;27;45474;-79
2022/04/05 11:47:26;;;;;;;;;27.00;27.00;;;;;;;;5094825;27;45278;-78
2022/04/05 11:49:53;;;;;;;;;25.67;25.67;;;;;;;;5108779;27;45360;-78
2022/04/05 11:52:26;;;;;;;;;26.33;25.67;;;;;;;;5110304;27;45286;-79
2022/04/05 11:57:42;;;;;;;;;22.00;22.00;;;;;;;;5112329;27;45436;-79
2022/04/05 12:00:08;;;;;;;;;25.00;24.00;;;;;;;;5112418;27;45336;-78
2022/04/05 12:02:33;;;;;;;;;22.00;20.00;;;;;;;;5106629;27;45388;-78
2022/04/05 12:04:59;;;;;;;;;21.33;21.33;;;;;;;;5100794;27;45701;-76
2022/04/05 12:07:24;;;;;;;;;29.00;27.67;;;;;;;;5100473;27;47282;-77
2022/04/05 12:09:49;;;;;;;;;21.33;20.00;;;;;;;;5100664;27;45333;-77
2022/04/05 12:12:14;;;;;;;;;27.33;26.33;;;;;;;;5100645;27;45348;-77
2022/04/05 12:14:40;;;;;;;;;23.33;22.33;;;;;;;;5103271;27;45393;-76
2022/04/05 12:17:06;;;;;;;;;26.00;25.00;;;;;;;;5122720;27;45388;-76
2022/04/05 12:19:41;;;;;;;;;24.00;22.00;;;;;;;;5117525;27;45348;-76
2022/04/05 12:22:08;;;;;;;;;22.33;22.00;;;;;;;;5101756;27;45428;-76
2022/04/05 12:24:40;;;;;;;;;21.33;20.33;;;;;;;;5101863;27;45310;-76
2022/04/05 12:27:05;;;;;;;;;21.67;21.67;;;;;;;;5100145;27;47507;-77
2022/04/05 12:29:36;;;;;;;;;20.33;18.00;;;;;;;;5102004;27;45356;-76
2022/04/05 12:32:10;;;;;;;;;23.00;22.00;;;;;;;;5101891;27;45336;-76
2022/04/05 12:34:36;;;;;;;;;23.00;22.00;;;;;;;;5101645;27;45290;-77
2022/04/05 12:37:02;;;;;;;;;20.33;20.00;;;;;;;;5101436;27;45546;-76
2022/04/05 12:39:31;;;;;;;;;20.00;18.00;;;;;;;;5100721;27;45334;-77
2022/04/05 12:41:57;;;;;;;;;21.67;19.00;;;;;;;;5094582;27;45483;-74
2022/04/05 12:44:23;;;;;;;;;23.00;22.00;;;;;;;;5091023;27;45455;-77
2022/04/05 12:46:49;;;;;;;;;23.00;21.67;;;;;;;;5096260;27;46403;-77
2022/04/05 12:49:18;;;;;;;;;19.67;19.67;;;;;;;;5086985;27;45295;-76
2022/04/05 12:51:43;;;;;;;;;23.67;22.33;;;;;;;;5084464;27;45483;-77
2022/04/05 12:54:24;;;;;;;;;21.67;20.67;;;;;;;;5091764;27;45555;-77
2022/04/05 12:56:49;;;;;;;;;21.33;21.00;;;;;;;;5092032;27;46402;-78
2022/04/05 12:59:23;;;;;;;;;26.00;24.67;;;;;;;;5089890;27;45313;-77
2022/04/05 13:01:52;;;;;;;;;25.33;22.00;;;;;;;;5091150;27;45411;-77
2022/04/05 13:04:21;;;;;;;;;24.67;22.33;;;;;;;;5088989;27;45496;-78
2022/04/05 13:06:50;;;;;;;;;32.33;30.00;;;;;;;;5088001;27;45357;-80
2022/04/05 13:09:17;;;;;;;;;27.00;26.00;;;;;;;;5091254;27;45380;-78
2022/04/05 13:11:42;;;;;;;;;23.33;23.00;;;;;;;;5081591;27;45377;-78
2022/04/05 13:14:10;;;;;;;;;23.33;23.33;;;;;;;;5092171;27;45456;-77
2022/04/05 13:16:36;;;;;;;;;23.33;23.33;;;;;;;;5099362;27;47402;-77
2022/04/05 13:19:08;;;;;;;;;28.33;28.33;;;;;;;;5083429;27;45604;-76
2022/04/05 13:21:42;;;;;;;;;23.33;22.00;;;;;;;;5091643;27;45833;-77
2022/04/05 13:24:09;;;;;;;;;21.00;19.33;;;;;;;;5089776;27;45389;-77
2022/04/05 13:26:38;;;;;;;;;23.33;23.00;;;;;;;;5088599;27;46555;-77
2022/04/05 13:29:04;;;;;;;;;23.00;23.00;;;;;;;;5088932;27;45427;-77
2022/04/05 13:31:33;;;;;;;;;20.33;20.33;;;;;;;;5090126;27;45221;-77
2022/04/05 13:33:58;;;;;;;;;25.00;25.00;;;;;;;;5089406;27;46029;-77
2022/04/05 13:36:24;;;;;;;;;25.00;22.67;;;;;;;;5091526;27;45449;-76
2022/04/05 13:38:49;;;;;;;;;22.67;22.67;;;;;;;;5094491;27;45700;-76
2022/04/05 13:41:14;;;;;;;;;24.67;24.00;;;;;;;;5084914;27;45356;-76
2022/04/05 13:43:40;;;;;;;;;22.00;21.33;;;;;;;;5084309;27;45577;-77
2022/04/05 13:46:05;;;;;;;;;0.00;0.00;;;;;;;;5084427;27;45561;-77
2022/04/05 13:48:31;;;;;;;;;22.67;22.67;;;;;;;;5085117;27;45270;-76
2022/04/05 13:50:57;;;;;;;;;26.67;24.33;;;;;;;;5083116;27;45400;-77
2022/04/05 13:53:22;;;;;;;;;18.33;18.33;;;;;;;;5088326;27;45412;-76
2022/04/05 13:55:47;;;;;;;;;22.00;21.00;;;;;;;;5088924;27;45423;-77
2022/04/05 13:58:14;;;;;;;;;23.00;20.00;;;;;;;;5097211;27;45410;-76
2022/04/05 14:00:40;;;;;;;;;21.00;20.00;;;;;;;;5081342;27;45375;-77
2022/04/05 14:03:05;;;;;;;;;23.67;21.67;;;;;;;;5079916;27;45493;-75
2022/04/05 14:05:30;;;;;;;;;20.00;17.67;;;;;;;;5084586;27;45479;-76
2022/04/05 14:07:56;;;;;;;;;17.67;16.33;;;;;;;;5092338;27;45627;-77
2022/04/05 14:10:21;;;;;;;;;18.00;18.00;;;;;;;;5089571;27;45663;-78
2022/04/05 14:12:46;;;;;;;;;23.00;21.33;;;;;;;;5098595;27;45349;-79
2022/04/05 14:15:12;;;;;;;;;23.00;21.00;;;;;;;;5091524;27;45547;-78
2022/04/05 14:17:37;;;;;;;;;18.67;17.33;;;;;;;;5095603;27;45483;-78